アリススプリングス の空港の天気 - METARとTAF

アリス・スプリングス空港 ( YBAS / ASP ) - オーストラリア ノーザンテリトリーアリススプリングス
飛行場実況気象(Metar)
観測時間02/21 00:30 ACST (02/20 15:00 UTC)
風向・風速西 3m/s
視程10km以上
天気現象
なし
気温16℃
湿度34%
気圧1015hPa
METARYBAS 201500Z AUTO 28005KT 9999 // NCD 16/M00 Q1015 RF00.0/000.0
過去の天気等 Google飛行場航空写真 Wunderground天気予報

過去48時間のMETAR

飛行場予報(TAF)
発表時間: 2/20 20:41 ACST (2/20 11:11 UTC)
予報対象時間: 20日21時 ACST ~ 21日21時 ACST
風向・風速東南東 4m/s
視程10km以上
なし
20日23時 ACST から
風向・風速東 3m/s
視程10km以上
なし
21日9時 ACST から
風向・風速東 5m/s
視程10km以上
なし
TAF YBAS 201111Z 2012/2112 12008KT CAVOK
FM201400 08005KT CAVOK
FM210000 09010KT CAVOK